Pagrindinis puslapis
METAR-TAF:

METAR-TAF

Oro uostai :

Braunšveigas, Vokietija

platuma: 52-18N, ilguma: 010-27E, Aukštis: 81 m

Dabartinis oras

Ataskaita buvo paskelbta 15 minutes, ne 10:50 UTC
Vėjas 5 kt iš Šiaurės Rytų, svyruoja nuo Šiaurės/Šiaurės Vakarų ir Rytų
Temperatūra 18°C
Drėgmė 45%
Slėgis 1023 hPa
Matomumas 10 km arba daugiau
Su prošvaistėmis ne aukštis 4300 ft
Su prošvaistėmis ne aukštis 9200 ft
Su prošvaistėmis ne aukštis 10000 ft

METAR: EDVE 311050Z 04005KT 340V100 9999 BKN043 BKN092 BKN100 18/06 Q1023

Laikas: 13:05 (11:05 UTC)

Prognozė

Ataskaita buvo paskelbta 3 valandos ir 5 minutes, ne 08:00 UTC
Prognozė galioja nuo 31 metu 09 UTC su 31 metu 18 UTC
Vėjas 10 kt iš Šiaurės Rytų
Matomumas 10 km arba daugiau
nėra debesų žemiau 1500 m ir nėra kamuolinių lietaus debesų

TAF: EDVE 310800Z 3109/3118 05010KT CAVOK

Orai ataskaitas ir orų prognozės (METAR, TAF).

turimą stotys yra geltonos ir raudonos taškus žemėlapyje.

Perkelti pele per norėdami pamatyti stoties vardą.

Tada spustelėkite, norėdami matyti oro stebėjimo ir prognozės.

Norėdami pakeisti žemėlapį: spustelėkite ant žalios mygtukų su juodo kryžiaus žemyn,; žalią mygtuką su brūkšneliu, jei norite nutolinti; arba žalių rodyklių gretimoms žemėlapius.


METAR-TAF: